Time;durP1;ratioP1;P1;durP2;ratioP2;P2;SDS_P1;SDS_P2;PMS_P1;PMS_P2;Temp;Humidity;BMP_temperature;BMP_pressure;BME280_temperature;BME280_humidity;BME280_pressure;Samples;Min_cycle;Max_cycle;Signal;HPM_P1;HPM_P2
2023/09/03 00:01:28;;;;;;;0.10;0.10;;;;;;;20.24;53.67;101988.63;7364549;19;20753;-61
2023/09/03 00:03:54;;;;;;;0.10;0.10;;;;;;;20.28;53.50;102000.84;7364404;19;20014;-61
2023/09/03 00:06:19;;;;;;;0.00;0.00;;;;;;;20.23;53.68;101992.22;7367997;19;20498;-59
2023/09/03 00:08:46;;;;;;;0.00;0.00;;;;;;;20.23;52.68;101996.66;7367562;19;20871;-61
2023/09/03 00:11:11;;;;;;;0.10;0.10;;;;;;;20.16;52.97;101996.03;7365874;19;20010;-59
2023/09/03 00:13:37;;;;;;;0.10;0.10;;;;;;;20.17;53.11;102017.22;7366433;19;20457;-61
2023/09/03 00:16:02;;;;;;;0.00;0.00;;;;;;;20.14;53.36;102016.47;7366665;19;20456;-60
2023/09/03 00:18:28;;;;;;;0.10;0.10;;;;;;;20.11;52.75;102012.16;7363542;19;20013;-59
2023/09/03 00:20:58;;;;;;;0.10;0.10;;;;;;;20.08;52.96;102008.78;7368257;19;20037;-59
2023/09/03 00:23:23;;;;;;;0.00;0.00;;;;;;;20.05;52.92;102008.91;7365294;19;20025;-61
2023/09/03 00:25:49;;;;;;;0.00;0.00;;;;;;;20.01;52.99;102007.28;7368512;19;20014;-60
2023/09/03 00:28:14;;;;;;;0.00;0.00;;;;;;;19.98;53.34;102012.75;7362987;19;20042;-60
2023/09/03 00:30:39;;;;;;;0.10;0.10;;;;;;;19.95;53.42;102013.72;7365420;19;20018;-62
2023/09/03 00:33:05;;;;;;;0.10;0.10;;;;;;;19.91;52.99;102009.44;7363769;19;20017;-58
2023/09/03 00:35:30;;;;;;;0.10;0.10;;;;;;;19.88;52.83;102010.47;7366423;19;20018;-60
2023/09/03 00:37:56;;;;;;;0.10;0.10;;;;;;;19.72;52.87;101993.47;7368147;19;20003;-59
2023/09/03 00:40:21;;;;;;;0.00;0.00;;;;;;;19.82;52.79;102012.47;7363324;19;20040;-59
2023/09/03 00:42:46;;;;;;;0.00;0.00;;;;;;;19.79;53.17;102010.81;7367400;19;20010;-59
2023/09/03 00:45:12;;;;;;;0.10;0.10;;;;;;;19.70;53.01;102003.25;7364216;19;20044;-60
2023/09/03 00:47:38;;;;;;;0.10;0.10;;;;;;;19.73;52.82;102007.56;7364411;19;20012;-59
2023/09/03 00:50:04;;;;;;;0.10;0.10;;;;;;;19.68;53.14;102010.41;7366875;19;20018;-60
2023/09/03 00:52:30;;;;;;;0.10;0.10;;;;;;;19.64;52.80;101992.88;7359797;19;20007;-61
2023/09/03 00:54:57;;;;;;;0.03;0.03;;;;;;;19.61;52.81;101995.66;7363055;19;20019;-60
2023/09/03 00:57:23;;;;;;;0.10;0.10;;;;;;;19.58;52.79;101998.41;7365023;19;20007;-61
2023/09/03 00:59:50;;;;;;;0.03;0.03;;;;;;;19.54;53.44;101987.06;7363028;19;20480;-60
2023/09/03 01:02:17;;;;;;;0.10;0.10;;;;;;;19.48;53.57;101982.00;7359351;19;20054;-60
2023/09/03 01:04:43;;;;;;;0.00;0.00;;;;;;;19.49;53.89;101985.50;7365325;19;21085;-61
2023/09/03 01:07:11;;;;;;;0.00;0.00;;;;;;;19.47;53.68;101990.03;7365923;19;20101;-61
2023/09/03 01:09:40;;;;;;;0.00;0.00;;;;;;;19.42;53.51;101987.56;7366625;19;20780;-58
2023/09/03 01:12:10;;;;;;;0.00;0.00;;;;;;;19.41;53.51;101981.41;7366207;19;20355;-58
2023/09/03 01:14:50;;;;;;;0.10;0.10;;;;;;;19.39;53.66;101975.28;7365584;19;20085;-58
2023/09/03 01:17:35;;;;;;;0.05;0.05;;;;;;;19.35;53.45;101981.59;7365807;19;20615;-61
2023/09/03 01:20:12;;;;;;;0.00;0.00;;;;;;;19.34;53.46;101985.19;7364438;19;20019;-60
2023/09/03 01:23:02;;;;;;;0.03;0.03;;;;;;;19.32;53.49;101988.84;7363012;19;20003;-60
2023/09/03 01:25:42;;;;;;;0.03;0.03;;;;;;;19.29;53.63;101991.59;7365278;19;20037;-60
2023/09/03 01:28:14;;;;;;;0.00;0.00;;;;;;;19.23;54.47;101982.09;7368289;19;20007;-60
2023/09/03 01:30:39;;;;;;;0.00;0.00;;;;;;;19.20;55.19;101982.19;7368324;19;20363;-61
2023/09/03 01:33:05;;;;;;;0.00;0.00;;;;;;;19.15;54.84;101984.16;7365894;19;19999;-59
2023/09/03 01:35:32;;;;;;;0.10;0.10;;;;;;;19.15;55.23;101997.41;7363828;19;20014;-59
2023/09/03 01:37:59;;;;;;;0.10;0.10;;;;;;;19.10;55.26;101981.69;7362742;19;20118;-59
2023/09/03 01:40:24;;;;;;;0.00;0.00;;;;;;;19.06;55.14;101982.75;7365206;19;20016;-59
2023/09/03 01:42:49;;;;;;;0.00;0.00;;;;;;;19.05;55.25;101993.38;7360823;19;20015;-59
2023/09/03 01:45:15;;;;;;;0.00;0.00;;;;;;;18.99;55.29;101988.31;7361677;19;19998;-60
2023/09/03 01:47:51;;;;;;;0.10;0.10;;;;;;;19.02;54.98;101998.81;7364083;19;20018;-58
2023/09/03 01:50:29;;;;;;;0.10;0.10;;;;;;;18.99;54.73;102004.19;7363589;19;20010;-61
2023/09/03 01:53:20;;;;;;;0.00;0.00;;;;;;;18.86;53.97;102006.44;7364853;19;20070;-61
2023/09/03 01:55:53;;;;;;;0.00;0.00;;;;;;;18.81;55.44;102001.31;7362626;19;20010;-59
2023/09/03 01:58:20;;;;;;;0.10;0.10;;;;;;;18.88;56.00;102017.84;7358905;19;20006;-62
2023/09/03 02:00:47;;;;;;;0.08;0.08;;;;;;;18.85;56.00;102008.19;7362895;19;20014;-60
2023/09/03 02:03:13;;;;;;;0.10;0.10;;;;;;;18.83;56.31;102009.19;7358040;19;20031;-61
2023/09/03 02:05:39;;;;;;;0.00;0.00;;;;;;;18.79;56.39;102007.56;7364657;19;20491;-61
2023/09/03 02:08:04;;;;;;;0.10;0.10;;;;;;;18.76;56.60;102016.50;7363040;19;20441;-60
2023/09/03 02:10:30;;;;;;;0.10;0.10;;;;;;;18.73;56.04;102011.31;7362779;19;20014;-61
2023/09/03 02:12:55;;;;;;;0.10;0.10;;;;;;;18.69;56.67;102014.97;7362281;19;20103;-59
2023/09/03 02:15:21;;;;;;;0.00;0.00;;;;;;;18.68;56.19;102005.31;7365926;19;20011;-60
2023/09/03 02:17:46;;;;;;;0.00;0.00;;;;;;;18.65;56.06;102000.09;7371576;19;20098;-61
2023/09/03 02:20:12;;;;;;;0.00;0.00;;;;;;;18.65;56.01;102010.66;7360619;19;20011;-58
2023/09/03 02:22:37;;;;;;;0.00;0.00;;;;;;;18.61;56.53;102009.94;7364433;19;20034;-61
2023/09/03 02:25:03;;;;;;;0.00;0.00;;;;;;;18.60;56.64;102024.09;7360618;19;20007;-59
2023/09/03 02:27:29;;;;;;;0.10;0.10;;;;;;;18.58;56.34;102019.75;7359861;19;20007;-57
2023/09/03 02:29:54;;;;;;;0.10;0.10;;;;;;;18.55;56.87;102020.75;7360874;19;20090;-59
2023/09/03 02:32:19;;;;;;;0.10;0.10;;;;;;;18.54;56.77;102026.06;7363069;19;20015;-61
2023/09/03 02:34:45;;;;;;;0.00;0.00;;;;;;;18.53;56.60;102027.00;7360611;19;20010;-57
2023/09/03 02:37:10;;;;;;;0.10;0.10;;;;;;;18.45;56.29;102018.44;7358265;19;20086;-59
2023/09/03 02:39:36;;;;;;;0.00;0.00;;;;;;;18.48;56.20;102028.94;7358572;19;20779;-58
2023/09/03 02:42:02;;;;;;;0.08;0.08;;;;;;;18.45;56.38;102021.09;7373011;19;20015;-61
2023/09/03 02:44:28;;;;;;;0.00;0.00;;;;;;;18.44;56.57;102024.66;7365419;19;20041;-59
2023/09/03 02:46:53;;;;;;;0.00;0.00;;;;;;;18.41;56.84;102020.34;7370883;19;20010;-59
2023/09/03 02:49:20;;;;;;;0.00;0.00;;;;;;;18.37;56.89;102022.22;7369394;19;20010;-60
2023/09/03 02:51:45;;;;;;;0.00;0.00;;;;;;;18.35;57.29;102018.78;7369148;19;20482;-60
2023/09/03 02:54:11;;;;;;;0.00;0.00;;;;;;;18.32;57.10;102018.88;7367013;19;20030;-60
2023/09/03 02:56:36;;;;;;;0.03;0.03;;;;;;;18.23;57.54;101998.03;7368312;19;20006;-60
2023/09/03 02:59:02;;;;;;;0.00;0.00;;;;;;;18.24;57.76;102010.31;7368484;19;20007;-58
2023/09/03 03:01:27;;;;;;;0.10;0.10;;;;;;;18.07;58.19;101988.88;7370134;19;20018;-59
2023/09/03 03:03:53;;;;;;;0.08;0.08;;;;;;;18.21;57.78;102013.09;7369191;19;20010;-59
2023/09/03 03:06:18;;;;;;;0.10;0.10;;;;;;;18.16;58.30;102004.44;7370210;19;20014;-60
2023/09/03 03:08:44;;;;;;;0.10;0.10;;;;;;;18.14;58.25;102009.75;7370809;19;20596;-59
2023/09/03 03:11:11;;;;;;;0.10;0.10;;;;;;;18.11;58.21;102009.88;7374944;19;20006;-61
2023/09/03 03:13:40;;;;;;;;;;;;;;;18.12;55.09;102005.47;7370116;19;20082;-60
2023/09/03 03:16:13;;;;;;;0.10;0.10;;;;;;;18.08;57.75;102009.13;7371173;19;20351;-61
2023/09/03 03:18:40;;;;;;;0.10;0.10;;;;;;;18.05;58.52;101998.66;7351748;19;20014;-58
2023/09/03 03:21:11;;;;;;;0.10;0.10;;;;;;;18.02;58.36;101993.47;7365929;19;20053;-59
2023/09/03 03:23:38;;;;;;;0.10;0.10;;;;;;;17.97;58.76;101990.97;7366323;19;20006;-60
2023/09/03 03:26:04;;;;;;;0.00;0.00;;;;;;;17.94;58.24;101988.41;7363839;19;20015;-61
2023/09/03 03:28:32;;;;;;;0.00;0.00;;;;;;;17.89;58.73;101991.25;7369635;19;20014;-60
2023/09/03 03:31:00;;;;;;;;;;;;;;;17.88;55.14;101991.25;7364624;19;20011;-57
2023/09/03 03:33:26;;;;;;;0.10;0.10;;;;;;;17.82;58.94;101992.34;7371933;19;19945;-58
2023/09/03 03:35:51;;;;;;;0.00;0.00;;;;;;;17.79;58.91;101994.19;7369313;19;20015;-61
2023/09/03 03:38:17;;;;;;;0.10;0.10;;;;;;;17.76;59.04;101992.53;7368100;19;20425;-59
2023/09/03 03:40:42;;;;;;;0.10;0.10;;;;;;;17.73;58.54;101997.03;7367466;19;20514;-60
2023/09/03 03:43:08;;;;;;;0.00;0.00;;;;;;;17.67;59.26;101979.59;7370202;19;20026;-60
2023/09/03 03:45:33;;;;;;;0.00;0.00;;;;;;;17.69;59.27;101985.69;7366927;19;20015;-59
2023/09/03 03:47:59;;;;;;;0.00;0.00;;;;;;;17.65;59.23;101978.78;7370365;19;20109;-61
2023/09/03 03:50:24;;;;;;;0.00;0.00;;;;;;;17.62;59.35;101986.78;7366532;19;20421;-61
2023/09/03 03:52:49;;;;;;;0.00;0.00;;;;;;;17.57;59.56;101980.78;7369105;19;20013;-59
2023/09/03 03:55:15;;;;;;;0.00;0.00;;;;;;;17.56;59.96;101981.72;7368829;19;20010;-59
2023/09/03 03:57:41;;;;;;;0.05;0.05;;;;;;;17.55;59.88;101983.47;7369358;19;20037;-60
2023/09/03 04:00:07;;;;;;;0.00;0.00;;;;;;;17.53;59.52;101989.72;7367615;19;20027;-61
2023/09/03 04:02:32;;;;;;;0.00;0.00;;;;;;;17.47;59.35;101976.69;7369777;19;20035;-60
2023/09/03 04:04:58;;;;;;;0.00;0.00;;;;;;;17.49;59.28;101980.19;7374469;19;20475;-61
2023/09/03 04:07:23;;;;;;;0.00;0.00;;;;;;;17.49;59.71;101977.53;7377917;19;20090;-58
2023/09/03 04:09:48;;;;;;;0.08;0.08;;;;;;;17.46;59.39;101978.47;7372688;19;20042;-60
2023/09/03 04:12:14;;;;;;;0.00;0.00;;;;;;;17.43;59.89;101969.78;7373356;19;20013;-60
2023/09/03 04:14:39;;;;;;;0.08;0.08;;;;;;;17.44;59.64;101979.47;7368531;19;20031;-60
2023/09/03 04:17:05;;;;;;;0.00;0.00;;;;;;;17.42;59.98;101973.34;7369067;19;20434;-61
2023/09/03 04:19:30;;;;;;;0.08;0.08;;;;;;;17.41;59.96;101974.25;7363134;19;20753;-58
2023/09/03 04:21:55;;;;;;;0.10;0.10;;;;;;;17.38;60.27;101964.63;7366997;19;20098;-60
2023/09/03 04:24:21;;;;;;;0.10;0.10;;;;;;;17.35;60.31;101965.63;7375869;19;20047;-61
2023/09/03 04:26:46;;;;;;;0.00;0.00;;;;;;;17.30;60.72;101964.88;7375037;19;20006;-60
2023/09/03 04:29:12;;;;;;;0.00;0.00;;;;;;;17.29;60.12;101957.03;7370151;19;20051;-61
2023/09/03 04:31:37;;;;;;;0.10;0.10;;;;;;;16.93;60.82;101898.28;7366774;19;20003;-61
2023/09/03 04:34:05;;;;;;;0.00;0.00;;;;;;;17.24;61.11;101951.88;7370546;19;20013;-60
2023/09/03 04:36:31;;;;;;;;;;;;;;;17.26;57.35;101955.31;7367256;19;20010;-61
2023/09/03 04:38:56;;;;;;;0.00;0.00;;;;;;;17.20;60.43;101944.97;7344721;19;19948;-57
2023/09/03 04:41:22;;;;;;;0.10;0.10;;;;;;;17.19;60.57;101947.66;7366479;19;20030;-59
2023/09/03 04:43:47;;;;;;;0.00;0.00;;;;;;;17.15;60.92;101933.69;7363750;19;20022;-60
2023/09/03 04:46:13;;;;;;;0.10;0.10;;;;;;;17.14;60.76;101939.88;7369181;19;20018;-59
2023/09/03 04:48:38;;;;;;;0.10;0.10;;;;;;;17.11;60.52;101934.69;7366226;19;20490;-60
2023/09/03 04:51:04;;;;;;;0.00;0.00;;;;;;;17.08;60.01;101940.03;7365829;19;20439;-61
2023/09/03 04:53:31;;;;;;;0.10;0.10;;;;;;;17.09;60.72;101947.94;7368589;19;20026;-60
2023/09/03 04:55:57;;;;;;;0.10;0.10;;;;;;;17.04;60.41;101948.97;7366509;19;20881;-60
2023/09/03 04:58:22;;;;;;;0.00;0.00;;;;;;;17.06;60.10;101952.44;7366870;19;20485;-59
2023/09/03 05:00:47;;;;;;;0.00;0.00;;;;;;;17.05;60.49;101953.34;7364627;19;20010;-61
2023/09/03 05:03:13;;;;;;;0.10;0.10;;;;;;;17.06;60.51;101957.69;7360365;19;20014;-61
2023/09/03 05:05:42;;;;;;;0.10;0.10;;;;;;;16.98;59.87;101935.94;7371510;19;20474;-59
2023/09/03 05:08:11;;;;;;;0.00;0.00;;;;;;;17.07;60.19;101955.00;7375629;19;20118;-61
2023/09/03 05:10:38;;;;;;;0.03;0.03;;;;;;;16.98;59.81;101928.91;7370372;19;20021;-61
2023/09/03 05:13:07;;;;;;;0.08;0.08;;;;;;;17.01;59.84;101939.38;7367473;19;20006;-61
2023/09/03 05:15:32;;;;;;;0.10;0.10;;;;;;;17.16;59.88;101953.88;7367317;19;20015;-59
2023/09/03 05:17:58;;;;;;;0.10;0.10;;;;;;;17.19;59.79;101959.06;7362793;19;20017;-61
2023/09/03 05:20:23;;;;;;;0.00;0.00;;;;;;;17.24;60.56;101956.31;7366875;19;20014;-60
2023/09/03 05:22:49;;;;;;;0.10;0.10;;;;;;;17.25;61.03;101952.75;7364621;19;20078;-61
2023/09/03 05:25:14;;;;;;;0.03;0.03;;;;;;;17.28;60.68;101948.22;7366839;19;20011;-61
2023/09/03 05:27:40;;;;;;;0.08;0.08;;;;;;;17.32;61.31;101949.84;7361822;19;20006;-61
2023/09/03 05:30:06;;;;;;;0.08;0.08;;;;;;;17.34;61.15;101953.34;7363680;19;20014;-61
2023/09/03 05:32:31;;;;;;;0.10;0.10;;;;;;;17.36;61.52;101956.78;7368197;19;20038;-58
2023/09/03 05:34:56;;;;;;;0.00;0.00;;;;;;;17.24;61.34;101943.97;7363603;19;20003;-61
2023/09/03 05:37:22;;;;;;;0.05;0.05;;;;;;;17.38;61.67;101960.22;7365118;19;20491;-60
2023/09/03 05:39:49;;;;;;;0.00;0.00;;;;;;;17.38;61.70;101957.56;7361955;19;20010;-60
2023/09/03 05:42:14;;;;;;;0.10;0.10;;;;;;;17.41;61.62;101961.91;7364773;19;20003;-61
2023/09/03 05:44:40;;;;;;;0.10;0.10;;;;;;;17.44;62.09;101968.91;7363519;19;20013;-59
2023/09/03 05:47:05;;;;;;;0.10;0.10;;;;;;;17.45;62.00;101963.56;7364539;19;20485;-60
2023/09/03 05:49:31;;;;;;;0.10;0.10;;;;;;;17.48;61.97;101970.50;7364608;19;20010;-58
2023/09/03 05:51:56;;;;;;;0.05;0.05;;;;;;;17.50;61.91;101973.97;7364233;19;21444;-60
2023/09/03 05:54:22;;;;;;;0.10;0.10;;;;;;;17.52;61.88;101977.44;7367895;19;20011;-61
2023/09/03 05:56:47;;;;;;;0.10;0.10;;;;;;;17.54;63.34;101976.47;7361415;19;20011;-61
2023/09/03 05:59:14;;;;;;;0.08;0.08;;;;;;;17.56;62.86;101981.72;7361537;19;20018;-61
2023/09/03 06:01:40;;;;;;;0.00;0.00;;;;;;;17.58;63.34;101982.50;7362527;19;20017;-58
2023/09/03 06:04:09;;;;;;;0.10;0.10;;;;;;;17.59;62.98;101985.13;7358705;19;20021;-61
2023/09/03 06:06:37;;;;;;;0.00;0.00;;;;;;;17.62;63.13;101990.28;7364649;19;20007;-60
2023/09/03 06:09:03;;;;;;;0.03;0.03;;;;;;;17.63;63.30;101991.16;7363207;19;20033;-60
2023/09/03 06:11:29;;;;;;;0.05;0.05;;;;;;;17.67;63.28;102002.50;7363551;19;20007;-60
2023/09/03 06:13:54;;;;;;;0.10;0.10;;;;;;;17.69;63.87;101992.72;7362618;19;20103;-61
2023/09/03 06:16:20;;;;;;;0.08;0.08;;;;;;;17.70;63.67;101998.00;7367024;19;20362;-59
2023/09/03 06:18:45;;;;;;;0.10;0.10;;;;;;;17.72;63.08;101996.16;7363725;19;20046;-61
2023/09/03 06:21:11;;;;;;;0.00;0.00;;;;;;;17.75;63.57;101995.25;7364140;19;20022;-60
2023/09/03 06:23:36;;;;;;;0.10;0.10;;;;;;;17.77;63.60;102002.19;7363268;19;20489;-60
2023/09/03 06:26:01;;;;;;;0.10;0.10;;;;;;;17.79;63.75;102008.31;7366624;19;20098;-60
2023/09/03 06:28:28;;;;;;;0.10;0.10;;;;;;;17.81;63.33;102014.41;7362848;19;20015;-61
2023/09/03 06:30:57;;;;;;;0.00;0.00;;;;;;;17.83;64.21;102012.56;7362639;19;20006;-59
2023/09/03 06:33:22;;;;;;;0.10;0.10;;;;;;;17.82;64.12;102008.19;7361809;19;20022;-61
2023/09/03 06:35:47;;;;;;;0.00;0.00;;;;;;;17.86;63.46;102017.75;7363752;19;20006;-61
2023/09/03 06:38:13;;;;;;;0.10;0.10;;;;;;;17.91;64.16;102016.75;7365529;19;20011;-60
2023/09/03 06:40:38;;;;;;;0.10;0.10;;;;;;;17.92;64.19;102007.91;7364084;19;20018;-60
2023/09/03 06:43:04;;;;;;;0.00;0.00;;;;;;;17.97;63.57;102011.25;7362500;19;20074;-60
2023/09/03 06:45:30;;;;;;;0.00;0.00;;;;;;;17.87;64.85;101990.41;7364084;19;20090;-59
2023/09/03 06:47:56;;;;;;;0.10;0.10;;;;;;;17.98;65.15;102007.69;7360218;19;20034;-62
2023/09/03 06:50:21;;;;;;;0.10;0.10;;;;;;;18.02;64.43;102019.91;7371801;19;20358;-60
2023/09/03 06:52:46;;;;;;;0.03;0.03;;;;;;;18.03;64.61;102009.25;7366581;19;20517;-61
2023/09/03 06:55:12;;;;;;;0.00;0.00;;;;;;;18.05;64.80;102019.81;7361221;19;20010;-60
2023/09/03 06:57:37;;;;;;;0.10;0.10;;;;;;;18.08;64.52;102014.41;7362721;19;20018;-61
2023/09/03 07:00:06;;;;;;;0.00;0.00;;;;;;;18.09;64.30;102021.41;7360866;19;20010;-61
2023/09/03 07:02:31;;;;;;;0.10;0.10;;;;;;;18.11;64.49;102014.31;7360749;19;20018;-61
2023/09/03 07:04:59;;;;;;;0.00;0.00;;;;;;;18.17;64.18;102019.38;7359008;19;20027;-61
2023/09/03 07:07:25;;;;;;;0.03;0.03;;;;;;;18.21;64.18;102020.16;7362533;19;20022;-60
2023/09/03 07:09:50;;;;;;;0.05;0.05;;;;;;;18.25;64.55;102024.41;7355107;19;20740;-61
2023/09/03 07:12:15;;;;;;;0.10;0.10;;;;;;;18.29;64.26;102016.31;7360674;19;20643;-59
2023/09/03 07:14:41;;;;;;;0.10;0.10;;;;;;;18.33;64.08;102023.25;7360816;19;20007;-61
2023/09/03 07:17:06;;;;;;;0.00;0.00;;;;;;;18.39;64.19;102011.59;7360616;19;20030;-60
2023/09/03 07:19:32;;;;;;;0.00;0.00;;;;;;;18.44;64.18;102022.00;7358168;19;20465;-62
2023/09/03 07:21:57;;;;;;;0.08;0.08;;;;;;;18.45;64.20;102027.28;7361450;19;20014;-59
2023/09/03 07:24:23;;;;;;;0.10;0.10;;;;;;;18.52;64.31;102019.97;7369831;19;20006;-61
2023/09/03 07:26:49;;;;;;;0.00;0.00;;;;;;;18.56;64.00;102026.91;7368934;19;20026;-61
2023/09/03 07:29:15;;;;;;;0.10;0.10;;;;;;;18.62;64.68;102037.25;7368931;19;20440;-62
2023/09/03 07:31:42;;;;;;;0.00;0.00;;;;;;;18.67;64.22;102035.31;7367040;19;20014;-61
2023/09/03 07:34:08;;;;;;;0.00;0.00;;;;;;;18.72;64.14;102033.41;7365846;19;20027;-60
2023/09/03 07:36:33;;;;;;;0.10;0.10;;;;;;;18.77;64.31;102042.03;7368342;19;20724;-60
2023/09/03 07:38:59;;;;;;;0.00;0.00;;;;;;;18.80;64.14;102041.91;7360936;19;20038;-59
2023/09/03 07:41:24;;;;;;;0.10;0.10;;;;;;;18.84;64.15;102042.69;7364534;19;20007;-61
2023/09/03 07:43:51;;;;;;;0.10;0.10;;;;;;;18.85;64.17;102042.59;7367692;19;20037;-60
2023/09/03 07:46:17;;;;;;;0.10;0.10;;;;;;;18.88;64.22;102045.16;7365675;19;20015;-61
2023/09/03 07:48:42;;;;;;;0.10;0.10;;;;;;;18.89;64.51;102046.88;7367246;19;20103;-62
2023/09/03 07:51:08;;;;;;;0.10;0.10;;;;;;;18.90;64.24;102045.97;7342337;19;20299;-59
2023/09/03 07:53:33;;;;;;;0.00;0.00;;;;;;;18.92;64.02;102054.72;7365200;19;20040;-59
2023/09/03 07:55:58;;;;;;;0.00;0.00;;;;;;;18.93;64.36;102058.22;7363989;19;20011;-62
2023/09/03 07:58:24;;;;;;;0.10;0.10;;;;;;;18.95;64.38;102060.81;7368994;19;20616;-62
2023/09/03 08:00:50;;;;;;;0.00;0.00;;;;;;;18.97;64.11;102069.59;7372318;19;20010;-62
2023/09/03 08:03:15;;;;;;;0.00;0.00;;;;;;;18.98;64.03;102071.31;7366217;19;20047;-61
2023/09/03 08:05:41;;;;;;;0.10;0.10;;;;;;;19.00;64.15;102075.63;7366502;19;20430;-60
2023/09/03 08:08:06;;;;;;;0.00;0.00;;;;;;;19.05;64.63;102078.09;7367251;19;20002;-60
2023/09/03 08:10:32;;;;;;;0.00;0.00;;;;;;;19.06;64.39;102077.16;7366156;19;20014;-61
2023/09/03 08:12:57;;;;;;;0.00;0.00;;;;;;;19.15;64.25;102079.50;7366091;19;20038;-60
2023/09/03 08:15:23;;;;;;;0.00;0.00;;;;;;;19.25;64.48;102074.72;7368634;19;20027;-61
2023/09/03 08:17:48;;;;;;;0.10;0.10;;;;;;;19.30;64.26;102078.94;7369219;19;20011;-61
2023/09/03 08:20:13;;;;;;;0.10;0.10;;;;;;;19.41;63.94;102076.75;7362103;19;20002;-61
2023/09/03 08:22:39;;;;;;;0.10;0.10;;;;;;;19.50;64.00;102085.25;7368572;19;20070;-60
2023/09/03 08:25:05;;;;;;;0.10;0.10;;;;;;;19.53;64.26;102074.56;7365024;19;20569;-60
2023/09/03 08:27:31;;;;;;;0.10;0.10;;;;;;;19.69;64.11;102081.88;7367073;19;20356;-61
2023/09/03 08:29:56;;;;;;;0.00;0.00;;;;;;;19.77;63.93;102089.56;7362666;19;20022;-61
2023/09/03 08:32:22;;;;;;;0.00;0.00;;;;;;;19.87;64.02;102098.88;7370497;19;20885;-61
2023/09/03 08:34:47;;;;;;;0.10;0.10;;;;;;;19.99;63.73;102094.00;7366333;19;20671;-60
2023/09/03 08:37:13;;;;;;;0.03;0.03;;;;;;;20.09;63.82;102098.00;7367328;19;20011;-61
2023/09/03 08:39:38;;;;;;;0.00;0.00;;;;;;;20.20;63.83;102106.41;7361110;19;20010;-59
2023/09/03 08:42:04;;;;;;;0.10;0.10;;;;;;;20.29;63.42;102094.56;7365275;19;20018;-60
2023/09/03 08:44:37;;;;;;;0.10;0.10;;;;;;;20.47;63.42;102105.28;7366151;19;20007;-60
2023/09/03 08:47:03;;;;;;;0.10;0.10;;;;;;;20.55;63.10;102104.97;7363298;19;20018;-61
2023/09/03 08:49:31;;;;;;;0.10;0.10;;;;;;;20.67;63.19;102108.88;7358908;19;20819;-62
2023/09/03 08:51:59;;;;;;;0.10;0.10;;;;;;;20.83;62.56;102101.97;7372835;19;20010;-60
2023/09/03 08:54:26;;;;;;;0.00;0.00;;;;;;;20.95;62.80;102109.44;7366621;19;20006;-60
2023/09/03 08:56:52;;;;;;;0.10;0.10;;;;;;;21.12;62.58;102116.66;7365132;19;20017;-60
2023/09/03 08:59:17;;;;;;;0.10;0.10;;;;;;;21.31;62.33;102111.41;7365774;19;20015;-60
2023/09/03 09:01:50;;;;;;;0.00;0.00;;;;;;;21.59;61.65;102110.13;7363879;19;20031;-61
2023/09/03 09:04:16;;;;;;;0.00;0.00;;;;;;;21.76;62.06;102118.22;7366995;19;20023;-61
2023/09/03 09:06:43;;;;;;;0.10;0.10;;;;;;;21.99;61.80;102109.13;7364977;19;20019;-59
2023/09/03 09:09:10;;;;;;;0.10;0.10;;;;;;;22.22;61.43;102116.03;7367772;19;20033;-62
2023/09/03 09:11:40;;;;;;;0.10;0.10;;;;;;;22.51;60.78;102112.78;7360649;19;20003;-60
2023/09/03 09:14:17;;;;;;;0.00;0.00;;;;;;;22.75;60.71;102120.44;7368493;19;20018;-61
2023/09/03 09:16:42;;;;;;;0.05;0.05;;;;;;;22.93;60.36;102113.34;7365641;19;20006;-60
2023/09/03 09:19:07;;;;;;;0.10;0.10;;;;;;;23.12;59.78;102108.78;7363471;19;20021;-61
2023/09/03 09:21:33;;;;;;;0.10;0.10;;;;;;;23.20;59.22;102100.38;7364632;19;20478;-60
2023/09/03 09:24:02;;;;;;;0.10;0.10;;;;;;;23.54;58.93;102110.94;7367487;19;20014;-58
2023/09/03 09:26:32;;;;;;;0.08;0.08;;;;;;;23.79;59.00;102120.28;7362845;19;19995;-60
2023/09/03 09:29:02;;;;;;;0.10;0.10;;;;;;;24.05;58.97;102117.00;7363302;19;20022;-61
2023/09/03 09:31:32;;;;;;;0.10;0.10;;;;;;;24.33;58.78;102110.06;7364532;19;20014;-58
2023/09/03 09:33:59;;;;;;;0.00;0.00;;;;;;;24.56;57.71;102116.78;7370456;19;20510;-61
2023/09/03 09:36:25;;;;;;;;;;;;;;;25.07;58.65;102106.59;7365204;19;20018;-60
2023/09/03 09:38:51;;;;;;;0.10;0.10;;;;;;;25.21;56.97;102105.75;7362776;19;19949;-62
2023/09/03 09:41:27;;;;;;;0.00;0.00;;;;;;;25.62;57.34;102101.31;7364598;19;20709;-60
2023/09/03 09:43:52;;;;;;;0.10;0.10;;;;;;;25.73;54.95;102099.78;7364352;19;20006;-61
2023/09/03 09:46:29;;;;;;;0.00;0.00;;;;;;;26.13;55.72;102104.28;7360215;19;20041;-61
2023/09/03 09:48:56;;;;;;;0.00;0.00;;;;;;;26.20;53.50;102087.78;7364888;19;20014;-61
2023/09/03 09:51:22;;;;;;;;;;;;;;;26.70;55.83;102103.16;7364817;19;20018;-62
2023/09/03 09:53:55;;;;;;;0.10;0.10;;;;;;;26.84;52.98;102104.91;7364484;19;20230;-62
2023/09/03 09:56:24;;;;;;;0.10;0.10;;;;;;;26.90;50.93;102101.78;7362611;19;20018;-61
2023/09/03 09:58:50;;;;;;;0.10;0.10;;;;;;;27.06;50.41;102099.75;7363676;19;20013;-61
2023/09/03 10:01:16;;;;;;;0.10;0.10;;;;;;;27.23;50.68;102093.25;7368175;19;20097;-60
2023/09/03 10:03:48;;;;;;;0.10;0.10;;;;;;;27.48;52.26;102084.28;7364799;19;20006;-60
2023/09/03 10:06:15;;;;;;;0.00;0.00;;;;;;;27.64;50.32;102094.78;7356776;19;20028;-60
2023/09/03 10:08:42;;;;;;;0.03;0.03;;;;;;;27.88;50.35;102089.47;7365500;19;20014;-61
2023/09/03 10:11:08;;;;;;;0.00;0.00;;;;;;;28.05;48.96;102099.81;7364106;19;20011;-57
2023/09/03 10:13:34;;;;;;;0.00;0.00;;;;;;;28.23;48.35;102102.94;7360868;19;20022;-61
2023/09/03 10:16:11;;;;;;;0.00;0.00;;;;;;;28.50;49.03;102100.03;7348828;19;20014;-60
2023/09/03 10:18:43;;;;;;;0.10;0.10;;;;;;;28.65;48.09;102093.47;7362145;19;20493;-60
2023/09/03 10:21:10;;;;;;;0.10;0.10;;;;;;;28.77;47.63;102080.06;7364869;19;21072;-61
2023/09/03 10:23:43;;;;;;;0.10;0.10;;;;;;;29.12;47.75;102080.84;7359581;19;20031;-61
2023/09/03 10:26:12;;;;;;;0.10;0.10;;;;;;;29.24;46.43;102080.84;7367353;19;20018;-60
2023/09/03 10:28:41;;;;;;;0.03;0.03;;;;;;;29.46;46.02;102078.16;7364440;19;20007;-62
2023/09/03 10:31:09;;;;;;;0.03;0.03;;;;;;;29.60;45.92;102075.22;7362289;19;20012;-61
2023/09/03 10:33:38;;;;;;;0.10;0.10;;;;;;;29.64;45.17;102075.81;7363130;19;20011;-58
2023/09/03 10:36:17;;;;;;;0.10;0.10;;;;;;;29.82;46.54;102062.69;7361242;19;20074;-60
2023/09/03 10:38:44;;;;;;;0.00;0.00;;;;;;;29.84;44.15;102076.88;7363515;19;20048;-61
2023/09/03 10:41:20;;;;;;;0.10;0.10;;;;;;;30.10;45.49;102078.25;7361592;19;20018;-61
2023/09/03 10:43:47;;;;;;;0.10;0.10;;;;;;;30.10;43.17;102083.63;7360658;19;20010;-61
2023/09/03 10:46:13;;;;;;;0.00;0.00;;;;;;;30.28;42.95;102078.56;7361985;19;20010;-60
2023/09/03 10:48:39;;;;;;;0.00;0.00;;;;;;;30.47;43.38;102075.19;7362615;19;20017;-59
2023/09/03 10:51:05;;;;;;;0.03;0.03;;;;;;;30.70;44.17;102075.91;7362955;19;20446;-59
2023/09/03 10:53:39;;;;;;;0.10;0.10;;;;;;;31.11;43.89;102069.59;7363364;19;20014;-61
2023/09/03 10:56:25;;;;;;;0.10;0.10;;;;;;;31.27;42.28;102061.88;7362113;19;20070;-61
2023/09/03 10:58:58;;;;;;;0.10;0.10;;;;;;;31.61;42.59;102066.94;7364767;19;20006;-60
2023/09/03 11:01:32;;;;;;;0.00;0.00;;;;;;;31.68;41.65;102057.31;7368325;19;20441;-61
2023/09/03 11:03:59;;;;;;;0.10;0.10;;;;;;;31.94;41.37;102059.50;7357318;19;20016;-59
2023/09/03 11:06:25;;;;;;;0.00;0.00;;;;;;;32.14;39.70;102058.50;7367986;19;20810;-58
2023/09/03 11:09:10;;;;;;;0.03;0.03;;;;;;;32.51;41.06;102066.75;7363915;19;20023;-61
2023/09/03 11:11:38;;;;;;;0.00;0.00;;;;;;;32.56;39.23;102060.06;7366985;19;20086;-61
2023/09/03 11:14:04;;;;;;;0.00;0.00;;;;;;;32.72;37.67;102053.03;7368528;19;20045;-60
2023/09/03 11:16:42;;;;;;;0.00;0.00;;;;;;;33.08;39.92;102050.50;7365312;19;20017;-61
2023/09/03 11:19:08;;;;;;;0.03;0.03;;;;;;;33.16;38.70;102050.63;7365362;19;20058;-59
2023/09/03 11:21:34;;;;;;;0.10;0.10;;;;;;;33.45;36.97;102055.03;7364400;19;20542;-61
2023/09/03 11:24:08;;;;;;;;;;;;;;;34.01;40.64;102051.25;7366681;19;20014;-60
2023/09/03 11:26:35;;;;;;;0.00;0.00;;;;;;;33.98;35.84;102057.84;7369704;19;19918;-61